Estación de Río Negro
Ultimos registro cada 15 minutos 59
| N° | Estación | Fecha / Hora | Temperatura | Humedad | Lluvia | Velocidad | Dirección | Radiación | Presion |
| 59 | Río Negro | 05-05-2026 14:30 | 12,8 | 100 | 0,8 | 0,5 | 119 | 50,6 | 998,1 |
| 58 | Río Negro | 05-05-2026 14:15 | 12,9 | 100 | 0,6 | 0,5 | 119 | 53,1 | 998,1 |
| 57 | Río Negro | 05-05-2026 14:00 | 12,7 | 100 | 0,2 | 0,5 | 122 | 55,6 | 998,3 |
| 56 | Río Negro | 05-05-2026 13:45 | 12,6 | 100 | 0,6 | 1 | 133 | 68,1 | 998,5 |
| 55 | Río Negro | 05-05-2026 13:30 | 12,7 | 100 | 0,8 | 0,5 | 131 | 45,6 | 999 |
| 54 | Río Negro | 05-05-2026 13:15 | 12,5 | 100 | 0,8 | 0 | 153 | 94,4 | 999,1 |
| 53 | Río Negro | 05-05-2026 13:00 | 12,4 | 100 | 0,4 | 0 | 128 | 90,6 | 999,5 |
| 52 | Río Negro | 05-05-2026 12:45 | 12,4 | 100 | 0,2 | 0,5 | 125 | 93,1 | 999,1 |
| 51 | Río Negro | 05-05-2026 12:30 | 12,3 | 100 | 0,2 | 0 | 115 | 86,9 | 999,6 |
| 50 | Río Negro | 05-05-2026 12:15 | 12 | 100 | 0,8 | 0 | 117 | 48,1 | 999,8 |
| 49 | Río Negro | 05-05-2026 12:00 | 11,9 | 100 | 1,6 | 0 | 126 | 23,1 | 1000,3 |
| 48 | Río Negro | 05-05-2026 11:45 | 11,9 | 100 | 2,2 | 0 | 261 | 18,1 | 1000,6 |
| 47 | Río Negro | 05-05-2026 11:30 | 11,9 | 100 | 2,2 | 0 | 253 | 14,4 | 1000,5 |
| 46 | Río Negro | 05-05-2026 11:15 | 11,9 | 100 | 1,8 | 0 | 329 | 10,6 | 1000,3 |
| 45 | Río Negro | 05-05-2026 11:00 | 11,9 | 100 | 1,4 | 0 | 277 | 11,9 | 1000,4 |
| 44 | Río Negro | 05-05-2026 10:45 | 11,9 | 100 | 1,2 | 0 | 317 | 13,1 | 1001 |
| 43 | Río Negro | 05-05-2026 10:30 | 11,8 | 100 | 1,4 | 0 | 340 | 9,4 | 1000,7 |
| 42 | Río Negro | 05-05-2026 10:15 | 11,9 | 100 | 0,6 | 0 | 316 | 8,1 | 1000,8 |
| 41 | Río Negro | 05-05-2026 10:00 | 11,8 | 100 | 0 | 0 | 303 | 18,1 | 1000,7 |
| 40 | Río Negro | 05-05-2026 09:45 | 11,8 | 100 | 0 | 0 | 299 | 25,6 | 1000,6 |
| 39 | Río Negro | 05-05-2026 09:30 | 11,7 | 100 | 0,2 | 0 | 291 | 36,9 | 1000,6 |
| 38 | Río Negro | 05-05-2026 09:15 | 11,7 | 100 | 0,2 | 0 | 216 | 38,1 | 1000,6 |
| 37 | Río Negro | 05-05-2026 09:00 | 11,6 | 100 | 0,2 | 0 | 300 | 29,4 | 1000,8 |
| 36 | Río Negro | 05-05-2026 08:45 | 11,6 | 100 | 0,2 | 0 | 281 | 16,9 | 1001,1 |
| 35 | Río Negro | 05-05-2026 08:30 | 11,6 | 100 | 0,2 | 0 | 284 | 10,6 | 1001,3 |
| 34 | Río Negro | 05-05-2026 08:15 | 11,5 | 100 | 0,2 | 0 | 284 | 4,4 | 1001,2 |
| 33 | Río Negro | 05-05-2026 08:00 | 11,5 | 100 | 0 | 0 | 300 | 0,6 | 1001,4 |
| 32 | Río Negro | 05-05-2026 07:45 | 11,5 | 100 | 0,2 | 0 | 170 | 0,6 | 1001,4 |
| 31 | Río Negro | 05-05-2026 07:30 | 11,4 | 100 | 0 | 0 | 135 | 0,6 | 1001,3 |
| 30 | Río Negro | 05-05-2026 07:15 | 11,3 | 100 | 0,2 | 0 | 132 | 0,6 | 1001,3 |
| 29 | Río Negro | 05-05-2026 07:00 | 11,2 | 100 | 0,2 | 0 | 115 | 0,6 | 1001,2 |
| 28 | Río Negro | 05-05-2026 06:45 | 11,1 | 100 | 0,2 | 0 | 119 | 0,6 | 1001,3 |
| 27 | Río Negro | 05-05-2026 06:30 | 11 | 100 | 0,2 | 0 | 114 | 0,6 | 1001,4 |
| 26 | Río Negro | 05-05-2026 06:15 | 10,9 | 100 | 0,2 | 0,5 | 118 | 0,6 | 1001,6 |
| 25 | Río Negro | 05-05-2026 06:00 | 10,8 | 100 | 0,4 | 0,5 | 121 | 0,6 | 1001,6 |
| 24 | Río Negro | 05-05-2026 05:45 | 10,7 | 100 | 0,4 | 1 | 121 | 0,6 | 1001,7 |
| 23 | Río Negro | 05-05-2026 05:30 | 10,7 | 100 | 0,2 | 0,5 | 122 | 0,6 | 1002 |
| 22 | Río Negro | 05-05-2026 05:15 | 10,7 | 100 | 0,2 | 1 | 125 | 0,6 | 1001,8 |
| 21 | Río Negro | 05-05-2026 05:00 | 10,7 | 100 | 0 | 1 | 126 | 0,6 | 1002 |
| 20 | Río Negro | 05-05-2026 04:45 | 10,7 | 100 | 0,4 | 0,5 | 125 | 0,6 | 1002,1 |
| 19 | Río Negro | 05-05-2026 04:30 | 10,7 | 100 | 0,4 | 0,5 | 128 | 0,6 | 1002,1 |
| 18 | Río Negro | 05-05-2026 04:15 | 10,8 | 100 | 1 | 0 | 121 | 0,6 | 1002,3 |
| 17 | Río Negro | 05-05-2026 04:00 | 10,8 | 100 | 0,4 | 0 | 117 | 0,6 | 1002,5 |
| 16 | Río Negro | 05-05-2026 03:45 | 10,8 | 100 | 0 | 0 | 112 | 0,6 | 1002,7 |
| 15 | Río Negro | 05-05-2026 03:30 | 10,8 | 100 | 0,4 | 0 | 119 | 0,6 | 1002,7 |
| 14 | Río Negro | 05-05-2026 03:15 | 10,8 | 100 | 0,4 | 0 | 117 | 0,6 | 1002,9 |
| 13 | Río Negro | 05-05-2026 03:00 | 10,8 | 100 | 0,4 | 0 | 114 | 0,6 | 1003,2 |
| 12 | Río Negro | 05-05-2026 02:45 | 10,8 | 100 | 0,2 | 0 | 101 | 0,6 | 1003,2 |
| 11 | Río Negro | 05-05-2026 02:30 | 10,8 | 100 | 0,2 | 0 | 115 | 0,6 | 1003,2 |
| 10 | Río Negro | 05-05-2026 02:15 | 10,8 | 100 | 0,4 | 0 | 114 | 0,6 | 1003,4 |
| 9 | Río Negro | 05-05-2026 02:00 | 10,8 | 100 | 0,4 | 0 | 153 | 0,6 | 1003,3 |
| 8 | Río Negro | 05-05-2026 01:45 | 10,8 | 100 | 0,4 | 0 | 240 | 0,6 | 1003,2 |
| 7 | Río Negro | 05-05-2026 01:30 | 10,8 | 100 | 0,2 | 0 | 303 | 0,6 | 1003,3 |
| 6 | Río Negro | 05-05-2026 01:15 | 10,9 | 100 | 0,2 | 0 | 247 | 0,6 | 1003,3 |
| 5 | Río Negro | 05-05-2026 01:00 | 10,8 | 100 | 0,2 | 0 | 209 | 0,6 | 1003 |
| 4 | Río Negro | 05-05-2026 00:45 | 10,9 | 100 | 0,2 | 0 | 104 | 0,6 | 1003,2 |
| 3 | Río Negro | 05-05-2026 00:30 | 10,9 | 100 | 0,2 | 0 | 254 | 0,6 | 1003,1 |
| 2 | Río Negro | 05-05-2026 00:15 | 10,8 | 100 | 0,2 | 0 | 296 | 0,6 | 1002,9 |
| 1 | Río Negro | 05-05-2026 00:00 | 10,8 | 100 | 0,2 | 0 | 299 | 0,6 | 1003,1 |